Time;durP1;ratioP1;P1;durP2;ratioP2;P2;SDS_P1;SDS_P2;PMS_P1;PMS_P2;Temp;Humidity;BMP_temperature;BMP_pressure;BME280_temperature;BME280_humidity;BME280_pressure;Samples;Min_cycle;Max_cycle;Signal;HPM_P1;HPM_P2
2023/07/05 00:01:13;;;;;;;3.40;2.20;;;16.20;99.90;;;;;;5032703;28;20434;-57
2023/07/05 00:03:39;;;;;;;3.07;2.50;;;16.30;99.90;;;;;;5036044;28;21009;-57
2023/07/05 00:06:05;;;;;;;3.00;2.80;;;16.30;99.90;;;;;;5037219;28;20524;-56
2023/07/05 00:08:33;;;;;;;3.70;2.27;;;16.20;99.90;;;;;;5033738;28;20219;-57
2023/07/05 00:11:06;;;;;;;2.73;2.53;;;16.30;99.90;;;;;;5030832;28;20226;-56
2023/07/05 00:13:32;;;;;;;3.67;2.20;;;16.30;99.90;;;;;;5032419;28;20454;-56
2023/07/05 00:15:59;;;;;;;2.83;2.37;;;16.30;99.90;;;;;;5035576;28;20418;-56
2023/07/05 00:18:25;;;;;;;3.43;2.20;;;16.30;99.90;;;;;;5036386;28;20438;-58
2023/07/05 00:20:51;;;;;;;1.90;1.80;;;16.30;99.90;;;;;;5037515;28;20477;-56
2023/07/05 00:23:16;;;;;;;3.90;2.20;;;16.30;99.90;;;;;;5039378;28;20456;-58
2023/07/05 00:25:42;;;;;;;3.83;2.57;;;16.30;99.90;;;;;;5036198;28;20759;-57
2023/07/05 00:28:07;;;;;;;3.50;2.33;;;16.20;99.90;;;;;;5041958;28;20179;-58
2023/07/05 00:30:33;;;;;;;4.60;2.77;;;16.20;99.90;;;;;;5043430;28;20200;-59
2023/07/05 00:32:58;;;;;;;7.03;2.43;;;16.20;99.90;;;;;;5035623;28;20289;-57
2023/07/05 00:35:24;;;;;;;4.63;1.93;;;16.10;99.90;;;;;;5036964;28;20167;-58
2023/07/05 00:37:50;;;;;;;4.33;2.17;;;16.10;99.90;;;;;;5041143;28;20213;-57
2023/07/05 00:40:15;;;;;;;2.93;2.43;;;16.00;99.90;;;;;;5039568;28;20200;-57
2023/07/05 00:42:42;;;;;;;4.30;2.30;;;16.00;99.90;;;;;;5040057;28;20565;-56
2023/07/05 00:45:11;;;;;;;4.60;2.57;;;15.90;99.90;;;;;;5043261;28;20176;-57
2023/07/05 00:47:39;;;;;;;2.57;2.37;;;15.90;99.90;;;;;;5044257;28;20406;-58
2023/07/05 00:50:16;;;;;;;3.90;2.23;;;15.90;99.90;;;;;;5036999;28;20928;-55
2023/07/05 00:52:43;;;;;;;3.83;2.30;;;15.90;99.90;;;;;;5034636;28;20821;-58
2023/07/05 00:55:09;;;;;;;5.80;2.50;;;15.80;99.90;;;;;;5042121;28;20418;-58
2023/07/05 00:57:37;;;;;;;4.37;2.10;;;15.90;99.90;;;;;;5040765;28;20782;-58
2023/07/05 01:00:07;;;;;;;2.60;2.37;;;15.90;99.90;;;;;;5041989;28;20654;-57
2023/07/05 01:02:38;;;;;;;3.47;2.30;;;15.90;99.90;;;;;;5035586;28;20409;-58
2023/07/05 01:05:05;;;;;;;4.10;2.70;;;15.80;99.90;;;;;;5032532;28;20442;-56
2023/07/05 01:07:31;;;;;;;4.27;3.83;;;15.80;99.90;;;;;;5038564;28;20939;-57
2023/07/05 01:09:57;;;;;;;5.23;2.80;;;15.80;99.90;;;;;;5041939;28;20426;-56
2023/07/05 01:12:34;;;;;;;6.93;3.13;;;15.80;99.90;;;;;;5039867;28;20919;-56
2023/07/05 01:15:11;;;;;;;8.23;3.77;;;15.90;99.90;;;;;;5042002;28;20198;-58
2023/07/05 01:17:52;;;;;;;7.57;3.60;;;15.90;99.90;;;;;;5046662;28;21263;-56
2023/07/05 01:20:46;;;;;;;5.97;3.40;;;15.90;99.90;;;;;;5045036;28;20519;-56
2023/07/05 01:23:51;;;;;;;7.83;3.80;;;15.80;99.90;;;;;;5043129;28;21086;-56
2023/07/05 01:26:28;;;;;;;7.23;3.43;;;15.80;99.90;;;;;;5023969;28;20438;-57
2023/07/05 01:28:59;;;;;;;8.43;3.60;;;15.70;99.90;;;;;;5023351;28;20476;-57
2023/07/05 01:31:43;;;;;;;7.20;3.37;;;15.70;99.90;;;;;;5038067;28;20468;-56
2023/07/05 01:34:27;;;;;;;6.70;2.87;;;15.70;99.90;;;;;;5044026;28;20519;-59
2023/07/05 01:36:52;;;;;;;7.20;3.00;;;15.60;99.90;;;;;;5038648;28;20428;-59
2023/07/05 01:39:18;;;;;;;4.80;3.00;;;15.60;99.90;;;;;;5043164;28;20423;-56
2023/07/05 01:41:43;;;;;;;3.83;3.40;;;15.50;99.90;;;;;;5037723;28;20274;-57
2023/07/05 01:44:13;;;;;;;3.83;2.83;;;15.50;99.90;;;;;;5043216;28;20553;-57
2023/07/05 01:47:03;;;;;;;3.47;2.63;;;15.50;99.90;;;;;;5034616;28;20186;-57
2023/07/05 01:49:36;;;;;;;3.07;2.60;;;15.40;99.90;;;;;;5026950;28;20455;-58
2023/07/05 01:52:42;;;;;;;3.40;2.73;;;15.40;99.90;;;;;;5026435;28;20477;-58
2023/07/05 01:55:43;;;;;;;3.30;2.30;;;15.40;99.90;;;;;;5025962;28;20444;-56
2023/07/05 01:58:18;;;;;;;5.47;3.00;;;15.50;99.90;;;;;;5019813;28;20758;-55
2023/07/05 02:00:48;;;;;;;6.33;3.63;;;15.50;99.90;;;;;;5044821;28;20444;-57
2023/07/05 02:03:18;;;;;;;4.90;2.83;;;15.50;99.90;;;;;;5037880;28;20472;-57
2023/07/05 02:05:47;;;;;;;7.73;2.90;;;15.50;99.90;;;;;;5031475;28;20417;-56
2023/07/05 02:08:13;;;;;;;4.77;2.90;;;15.50;99.90;;;;;;5037198;28;20471;-58
2023/07/05 02:10:39;;;;;;;5.00;3.53;;;15.50;99.90;;;;;;5036265;28;20430;-57
2023/07/05 02:13:08;;;;;;;12.87;4.93;;;15.50;99.90;;;;;;5032507;28;20465;-57
2023/07/05 02:15:35;;;;;;;9.50;4.43;;;15.50;99.90;;;;;;5027742;28;20228;-56
2023/07/05 02:18:01;;;;;;;9.07;3.60;;;15.40;99.90;;;;;;5036072;28;20514;-58
2023/07/05 02:20:27;;;;;;;8.70;3.50;;;15.40;99.90;;;;;;5040924;28;20474;-57
2023/07/05 02:22:53;;;;;;;5.17;3.57;;;15.50;99.90;;;;;;5035791;28;20761;-55
2023/07/05 02:25:19;;;;;;;11.03;4.07;;;15.50;99.90;;;;;;5036029;28;20422;-58
2023/07/05 02:27:45;;;;;;;5.07;3.37;;;15.50;99.90;;;;;;5039407;28;20179;-57
2023/07/05 02:30:13;;;;;;;6.20;3.20;;;15.50;99.90;;;;;;5026092;28;20434;-56
2023/07/05 02:32:39;;;;;;;5.97;3.57;;;15.60;99.90;;;;;;5032927;28;20180;-57
2023/07/05 02:35:05;;;;;;;3.13;2.83;;;15.60;99.90;;;;;;5034501;28;20496;-59
2023/07/05 02:37:35;;;;;;;4.90;3.00;;;15.60;99.90;;;;;;5031726;28;20434;-57
2023/07/05 02:40:01;;;;;;;11.70;3.80;;;15.70;99.90;;;;;;5044853;28;20441;-58
2023/07/05 02:42:27;;;;;;;4.83;3.53;;;15.70;99.90;;;;;;5040294;28;20468;-55
2023/07/05 02:44:53;;;;;;;7.23;2.97;;;15.80;99.90;;;;;;5037055;28;20203;-59
2023/07/05 02:47:19;;;;;;;8.47;3.80;;;15.80;99.90;;;;;;5032813;28;20175;-57
2023/07/05 02:49:45;;;;;;;10.83;3.27;;;15.80;99.90;;;;;;5032355;28;20187;-56
2023/07/05 02:52:11;;;;;;;6.10;2.83;;;15.80;99.90;;;;;;5039116;28;20457;-56
2023/07/05 02:54:37;;;;;;;6.10;2.87;;;15.80;99.90;;;;;;5037490;28;20549;-57
2023/07/05 02:57:04;;;;;;;5.30;3.33;;;15.80;99.90;;;;;;5044148;28;20182;-58
2023/07/05 02:59:29;;;;;;;5.87;3.00;;;15.90;99.90;;;;;;5036603;28;20167;-55
2023/07/05 03:01:55;;;;;;;3.50;2.70;;;15.90;99.90;;;;;;5027115;28;20450;-55
2023/07/05 03:04:21;;;;;;;6.40;3.00;;;15.90;99.90;;;;;;5024051;28;20194;-57
2023/07/05 03:06:46;;;;;;;6.93;3.57;;;15.90;99.90;;;;;;5029547;28;20191;-57
2023/07/05 03:09:12;;;;;;;4.27;2.93;;;16.00;99.90;;;;;;5022505;28;20649;-58
2023/07/05 03:11:37;;;;;;;8.40;3.40;;;16.00;99.90;;;;;;5023471;28;20199;-58
2023/07/05 03:14:03;;;;;;;4.40;2.93;;;15.90;99.90;;;;;;5024688;28;20195;-56
2023/07/05 03:16:29;;;;;;;5.17;2.60;;;15.90;99.90;;;;;;5024375;28;20213;-55
2023/07/05 03:18:54;;;;;;;6.60;3.70;;;15.90;99.90;;;;;;5025123;28;20643;-57
2023/07/05 03:21:20;;;;;;;6.40;3.30;;;15.90;99.90;;;;;;5027491;28;20203;-58
2023/07/05 03:23:46;;;;;;;4.27;3.17;;;15.90;99.90;;;;;;5025030;28;20171;-58
2023/07/05 03:26:12;;;;;;;4.30;2.90;;;15.90;99.90;;;;;;5024923;28;20179;-54
2023/07/05 03:28:37;;;;;;;6.77;3.60;;;15.80;99.90;;;;;;5022627;28;20190;-55
2023/07/05 03:31:10;;;;;;;5.07;3.53;;;15.80;99.90;;;;;;5021178;28;20458;-57
2023/07/05 03:33:37;;;;;;;4.57;3.10;;;15.80;99.90;;;;;;5023455;28;20200;-57
2023/07/05 03:36:14;;;;;;;4.70;3.00;;;15.80;99.90;;;;;;5016373;28;20426;-57
2023/07/05 03:38:40;;;;;;;7.70;3.07;;;15.80;99.90;;;;;;5024517;28;20440;-57
2023/07/05 03:41:14;;;;;;;6.90;3.90;;;15.80;99.90;;;;;;5034891;28;20438;-57
2023/07/05 03:43:41;;;;;;;6.50;4.23;;;15.80;99.90;;;;;;5030597;28;20429;-55
2023/07/05 03:46:10;;;;;;;5.40;4.03;;;15.80;99.90;;;;;;5028645;28;20518;-56
2023/07/05 03:48:38;;;;;;;4.80;4.00;;;15.70;99.90;;;;;;5027260;28;20435;-56
2023/07/05 03:51:04;;;;;;;8.50;4.20;;;15.70;99.90;;;;;;5028559;28;20465;-56
2023/07/05 03:53:30;;;;;;;5.10;3.50;;;15.70;99.90;;;;;;5023920;28;21072;-57
2023/07/05 03:56:01;;;;;;;5.37;3.57;;;15.60;99.90;;;;;;5024143;28;20426;-57
2023/07/05 03:58:27;;;;;;;6.53;4.00;;;15.60;99.90;;;;;;5027746;28;20175;-58
2023/07/05 04:00:53;;;;;;;6.60;4.50;;;15.60;99.90;;;;;;5020675;28;20464;-59
2023/07/05 04:03:18;;;;;;;7.03;3.90;;;15.60;99.90;;;;;;5024036;28;20188;-58
2023/07/05 04:05:46;;;;;;;6.83;4.33;;;15.60;99.90;;;;;;5029922;28;20171;-57
2023/07/05 04:08:11;;;;;;;6.33;3.87;;;15.60;99.90;;;;;;5029737;28;20190;-56
2023/07/05 04:10:37;;;;;;;6.83;4.37;;;15.70;99.90;;;;;;5033801;28;20524;-56
2023/07/05 04:13:02;;;;;;;7.30;4.23;;;15.60;99.90;;;;;;5031230;28;20198;-56
2023/07/05 04:15:28;;;;;;;7.03;4.97;;;15.60;99.90;;;;;;5033347;28;20202;-56
2023/07/05 04:17:53;;;;;;;7.13;4.10;;;15.60;99.90;;;;;;5041057;28;20167;-56
2023/07/05 04:20:19;;;;;;;7.90;3.80;;;15.70;99.90;;;;;;5031506;28;20679;-56
2023/07/05 04:22:45;;;;;;;12.30;4.37;;;15.70;99.90;;;;;;5020354;28;20207;-57
2023/07/05 04:25:11;;;;;;;5.13;3.73;;;15.70;99.90;;;;;;5031061;28;20173;-58
2023/07/05 04:27:37;;;;;;;6.43;3.90;;;15.70;99.90;;;;;;5032739;28;20304;-59
2023/07/05 04:30:03;;;;;;;6.27;4.13;;;15.70;99.90;;;;;;5026880;28;20226;-60
2023/07/05 04:32:30;;;;;;;11.77;4.60;;;15.80;99.90;;;;;;5024338;28;20175;-55
2023/07/05 04:34:56;;;;;;;7.20;4.33;;;15.80;99.90;;;;;;5038784;28;20458;-56
2023/07/05 04:37:22;;;;;;;13.10;4.43;;;15.90;99.90;;;;;;5036139;28;20518;-57
2023/07/05 04:39:47;;;;;;;11.40;4.40;;;15.90;99.90;;;;;;5039267;28;20260;-57
2023/07/05 04:42:13;;;;;;;4.70;3.70;;;16.00;99.90;;;;;;5030421;28;20203;-54
2023/07/05 04:44:39;;;;;;;5.57;3.40;;;16.00;99.90;;;;;;5029291;28;20172;-58
2023/07/05 04:47:05;;;;;;;5.30;3.07;;;16.00;99.90;;;;;;5037016;28;20664;-63
2023/07/05 04:49:30;;;;;;;6.07;2.87;;;16.00;99.90;;;;;;5033901;28;20190;-59
2023/07/05 04:51:56;;;;;;;5.57;3.33;;;16.00;99.90;;;;;;5031215;28;20504;-59
2023/07/05 04:54:22;;;;;;;3.83;3.00;;;16.00;99.90;;;;;;5026503;28;20249;-59
2023/07/05 04:56:47;;;;;;;4.30;2.60;;;16.00;99.90;;;;;;5033654;28;20175;-58
2023/07/05 04:59:13;;;;;;;4.50;2.80;;;16.00;99.90;;;;;;5032643;28;20236;-58
2023/07/05 05:01:39;;;;;;;4.33;3.17;;;16.00;99.90;;;;;;5033345;28;20632;-58
2023/07/05 05:04:05;;;;;;;5.27;3.30;;;16.00;99.90;;;;;;5028996;28;20211;-58
2023/07/05 05:06:30;;;;;;;4.50;3.00;;;16.00;99.90;;;;;;5032291;28;20679;-58
2023/07/05 05:08:56;;;;;;;5.43;3.40;;;16.00;99.90;;;;;;5030067;28;20179;-57
2023/07/05 05:11:22;;;;;;;4.87;3.37;;;16.00;99.90;;;;;;5030551;28;20928;-57
2023/07/05 05:13:49;;;;;;;4.40;3.23;;;16.00;99.90;;;;;;5031302;28;20268;-57
2023/07/05 05:16:15;;;;;;;4.70;3.50;;;16.00;99.90;;;;;;5029452;28;25060;-58
2023/07/05 05:18:41;;;;;;;6.50;3.83;;;16.00;99.90;;;;;;5032064;28;20548;-59
2023/07/05 05:21:07;;;;;;;4.17;3.20;;;16.00;99.90;;;;;;5034604;28;20695;-58
2023/07/05 05:23:33;;;;;;;7.87;3.37;;;16.20;99.90;;;;;;5031514;28;20425;-59
2023/07/05 05:25:58;;;;;;;5.37;3.97;;;16.20;99.90;;;;;;5023776;28;20187;-57
2023/07/05 05:28:24;;;;;;;4.03;3.00;;;16.40;99.90;;;;;;5022151;28;20190;-56
2023/07/05 05:30:49;;;;;;;3.60;3.03;;;16.40;99.90;;;;;;5027197;28;20210;-56
2023/07/05 05:33:16;;;;;;;4.50;3.57;;;16.50;99.90;;;;;;5029240;28;20234;-57
2023/07/05 05:35:49;;;;;;;5.20;3.80;;;16.50;99.90;;;;;;5031245;28;20652;-58
2023/07/05 05:38:17;;;;;;;5.90;3.17;;;16.60;99.90;;;;;;5031347;28;20434;-58
2023/07/05 05:40:42;;;;;;;3.90;3.03;;;16.60;99.90;;;;;;5028024;28;20450;-58
2023/07/05 05:43:08;;;;;;;6.40;3.17;;;16.60;99.90;;;;;;5027369;28;20438;-59
2023/07/05 05:45:34;;;;;;;5.27;3.60;;;16.70;99.90;;;;;;5022812;28;20195;-58
2023/07/05 05:47:59;;;;;;;6.30;3.07;;;16.70;99.90;;;;;;5038073;28;20667;-59
2023/07/05 05:50:25;;;;;;;3.93;2.97;;;16.70;99.90;;;;;;5041234;28;20726;-59
2023/07/05 05:52:51;;;;;;;4.37;2.70;;;16.80;99.90;;;;;;5031252;28;20178;-57
2023/07/05 05:55:17;;;;;;;4.80;3.27;;;16.80;99.90;;;;;;5028000;28;20632;-59
2023/07/05 05:57:42;;;;;;;5.73;3.30;;;16.80;99.90;;;;;;5026686;28;22219;-56
2023/07/05 06:00:09;;;;;;;4.57;3.77;;;16.80;99.90;;;;;;5028940;28;20429;-57
2023/07/05 06:02:36;;;;;;;4.03;3.40;;;16.90;99.90;;;;;;5034105;28;20179;-57
2023/07/05 06:05:03;;;;;;;5.43;3.80;;;16.90;99.90;;;;;;5027513;28;20969;-56
2023/07/05 06:07:29;;;;;;;6.43;3.50;;;16.90;99.90;;;;;;5021141;28;20492;-55
2023/07/05 06:09:55;;;;;;;6.63;3.57;;;16.90;99.90;;;;;;5023749;28;20426;-58
2023/07/05 06:12:20;;;;;;;5.70;3.37;;;16.90;99.90;;;;;;5046316;28;20720;-56
2023/07/05 06:14:46;;;;;;;6.13;3.70;;;16.90;99.90;;;;;;5046110;28;20260;-59
2023/07/05 06:17:11;;;;;;;5.20;3.83;;;17.00;99.90;;;;;;5037116;28;20183;-58
2023/07/05 06:19:38;;;;;;;6.83;4.40;;;17.00;99.90;;;;;;5045291;28;20667;-58
2023/07/05 06:22:03;;;;;;;7.07;4.90;;;17.10;99.90;;;;;;5046829;28;20286;-58
2023/07/05 06:24:31;;;;;;;6.57;4.00;;;17.20;99.90;;;;;;5046869;28;20516;-59
2023/07/05 06:26:57;;;;;;;5.10;3.57;;;17.30;99.90;;;;;;5043700;28;20171;-59
2023/07/05 06:29:22;;;;;;;6.63;3.30;;;17.30;99.90;;;;;;5046777;28;20437;-57
2023/07/05 06:31:48;;;;;;;5.83;3.80;;;17.40;99.90;;;;;;5033586;28;20199;-59
2023/07/05 06:34:14;;;;;;;4.33;3.67;;;17.40;99.90;;;;;;5030337;28;20208;-59
2023/07/05 06:36:40;;;;;;;6.03;3.40;;;17.60;99.90;;;;;;5039585;28;20486;-59
2023/07/05 06:39:06;;;;;;;7.27;3.40;;;17.60;99.90;;;;;;5044000;28;20225;-58
2023/07/05 06:41:31;;;;;;;3.67;3.23;;;17.60;99.90;;;;;;5042948;28;20199;-58
2023/07/05 06:43:57;;;;;;;5.90;3.60;;;17.60;99.90;;;;;;5049637;28;20183;-57
2023/07/05 06:46:23;;;;;;;5.73;3.77;;;17.50;99.90;;;;;;5047560;28;20172;-59
2023/07/05 06:48:50;;;;;;;4.37;3.97;;;17.60;99.90;;;;;;5046724;28;20171;-57
2023/07/05 06:51:16;;;;;;;8.03;4.00;;;17.60;99.90;;;;;;5041325;28;20273;-57
2023/07/05 06:53:41;;;;;;;8.23;3.07;;;17.60;99.90;;;;;;5034766;28;20518;-57
2023/07/05 06:56:09;;;;;;;4.87;3.23;;;17.50;99.90;;;;;;5043021;28;20946;-56
2023/07/05 06:58:36;;;;;;;4.90;3.03;;;17.50;99.90;;;;;;5037211;28;20786;-57
2023/07/05 07:01:02;;;;;;;4.20;3.20;;;17.50;99.90;;;;;;5043014;28;20520;-57
2023/07/05 07:03:27;;;;;;;5.47;3.93;;;17.50;99.90;;;;;;5033897;28;21270;-58
2023/07/05 07:05:54;;;;;;;5.73;3.53;;;17.60;99.90;;;;;;5041854;28;20258;-59
2023/07/05 07:08:21;;;;;;;6.17;3.00;;;17.60;99.90;;;;;;5038228;28;20186;-56
2023/07/05 07:10:48;;;;;;;5.70;3.40;;;17.60;99.90;;;;;;5028895;28;20443;-57
2023/07/05 07:13:14;;;;;;;7.37;3.43;;;17.70;99.90;;;;;;5034269;28;20495;-58
2023/07/05 07:15:41;;;;;;;3.63;3.33;;;17.70;99.90;;;;;;5033149;28;20429;-57
2023/07/05 07:18:07;;;;;;;7.13;3.50;;;17.70;99.90;;;;;;5037522;28;21067;-58
2023/07/05 07:20:33;;;;;;;6.17;4.17;;;17.60;99.90;;;;;;5035216;28;20508;-57
2023/07/05 07:22:59;;;;;;;5.43;3.70;;;17.60;99.90;;;;;;5043445;28;20516;-57
2023/07/05 07:25:25;;;;;;;5.57;4.47;;;17.60;99.90;;;;;;5044924;28;20186;-59
2023/07/05 07:27:51;;;;;;;4.83;3.60;;;17.60;99.90;;;;;;5038088;28;20179;-57
2023/07/05 07:30:17;;;;;;;4.60;3.40;;;17.60;99.90;;;;;;5038189;28;20867;-57
2023/07/05 07:32:45;;;;;;;7.47;3.20;;;17.60;99.90;;;;;;5038350;28;20188;-57
2023/07/05 07:35:11;;;;;;;4.10;3.07;;;17.60;99.90;;;;;;5042407;28;20446;-54
2023/07/05 07:37:37;;;;;;;3.20;2.83;;;17.60;99.90;;;;;;5037117;28;20801;-58
2023/07/05 07:40:04;;;;;;;4.63;3.10;;;17.70;99.90;;;;;;5045153;28;20225;-58
2023/07/05 07:42:30;;;;;;;5.47;3.70;;;17.80;99.90;;;;;;5036183;28;20258;-58
2023/07/05 07:44:56;;;;;;;4.00;3.30;;;17.90;99.90;;;;;;5041257;28;20532;-58
2023/07/05 07:47:22;;;;;;;3.20;2.90;;;18.00;99.90;;;;;;5045318;28;20792;-56
2023/07/05 07:49:49;;;;;;;5.20;3.00;;;18.00;99.90;;;;;;5047775;28;20406;-58
2023/07/05 07:52:15;;;;;;;5.50;3.80;;;18.00;99.90;;;;;;5043363;28;20541;-57
2023/07/05 07:54:42;;;;;;;8.40;2.90;;;18.00;99.90;;;;;;5046415;28;20974;-56
2023/07/05 07:57:08;;;;;;;4.70;2.90;;;18.00;99.90;;;;;;5046560;28;20430;-58
2023/07/05 07:59:35;;;;;;;3.30;3.00;;;17.90;99.90;;;;;;5044514;28;20429;-58
2023/07/05 08:02:02;;;;;;;5.23;2.77;;;17.90;99.90;;;;;;5041393;28;20196;-59
2023/07/05 08:04:28;;;;;;;6.20;3.10;;;17.80;99.90;;;;;;5036001;28;20906;-57
2023/07/05 08:06:54;;;;;;;3.73;2.67;;;17.80;99.90;;;;;;5041673;28;20468;-59
2023/07/05 08:09:28;;;;;;;4.37;3.13;;;17.80;99.90;;;;;;5043480;28;20456;-56
2023/07/05 08:11:56;;;;;;;4.27;2.73;;;17.80;99.90;;;;;;5036437;28;20578;-56
2023/07/05 08:14:22;;;;;;;4.90;3.00;;;17.80;99.90;;;;;;5033065;28;20458;-59
2023/07/05 08:16:48;;;;;;;4.43;3.53;;;17.80;99.90;;;;;;5040221;28;20434;-56
2023/07/05 08:19:14;;;;;;;3.80;2.70;;;17.90;99.90;;;;;;5034076;28;20585;-55
2023/07/05 08:21:43;;;;;;;2.87;2.30;;;18.00;99.90;;;;;;5036959;28;20205;-56
2023/07/05 08:24:10;;;;;;;2.30;2.00;;;18.10;99.90;;;;;;5038766;28;20433;-58
2023/07/05 08:26:35;;;;;;;2.23;2.03;;;18.10;99.90;;;;;;5046770;28;20430;-55
2023/07/05 08:29:02;;;;;;;3.53;1.90;;;18.10;99.90;;;;;;5041034;28;20417;-58
2023/07/05 08:31:29;;;;;;;3.63;2.10;;;18.10;99.90;;;;;;5049907;28;20238;-58
2023/07/05 08:33:55;;;;;;;4.03;1.90;;;18.30;99.90;;;;;;5040015;28;20507;-57
2023/07/05 08:36:28;;;;;;;3.73;1.60;;;18.40;99.90;;;;;;5044547;28;20437;-58
2023/07/05 08:38:56;;;;;;;2.13;1.80;;;18.40;99.90;;;;;;5040169;28;20179;-58
2023/07/05 08:41:41;;;;;;;3.40;1.37;;;18.50;99.90;;;;;;5034317;28;20454;-58
2023/07/05 08:44:15;;;;;;;1.77;1.20;;;18.50;99.90;;;;;;5036908;28;20437;-58
2023/07/05 08:46:44;;;;;;;2.00;1.40;;;18.60;99.90;;;;;;5031844;28;20837;-57
2023/07/05 08:49:19;;;;;;;2.73;1.37;;;18.70;99.90;;;;;;5038134;28;20426;-57
2023/07/05 08:51:45;;;;;;;2.10;1.50;;;18.60;99.90;;;;;;5035731;28;20461;-57
2023/07/05 08:54:13;;;;;;;1.13;1.10;;;18.60;99.90;;;;;;5039727;28;20450;-57
2023/07/05 08:56:48;;;;;;;1.33;1.00;;;18.50;99.90;;;;;;5038549;28;20214;-57
2023/07/05 08:59:32;;;;;;;1.27;1.13;;;18.40;99.90;;;;;;5031297;28;20426;-57
2023/07/05 09:01:59;;;;;;;1.20;1.10;;;18.40;99.90;;;;;;5035924;28;20446;-59
2023/07/05 09:04:28;;;;;;;1.20;1.00;;;18.30;99.90;;;;;;5032298;28;20445;-58
2023/07/05 09:07:23;;;;;;;1.73;1.10;;;18.20;99.90;;;;;;5034404;28;21423;-57
2023/07/05 09:10:13;;;;;;;1.37;1.27;;;18.40;99.90;;;;;;5034545;28;21006;-57
2023/07/05 09:12:56;;;;;;;2.10;1.23;;;18.60;99.90;;;;;;5035444;28;20428;-58
2023/07/05 09:15:29;;;;;;;1.47;1.00;;;18.80;99.90;;;;;;5044189;28;21161;-58
2023/07/05 09:18:21;;;;;;;0.90;0.80;;;18.90;99.90;;;;;;5045107;28;20770;-59
2023/07/05 09:21:08;;;;;;;2.03;0.90;;;19.10;99.90;;;;;;5041756;28;20445;-56
2023/07/05 09:23:53;;;;;;;0.90;0.90;;;19.20;99.90;;;;;;5036554;28;20473;-57
2023/07/05 09:26:28;;;;;;;0.90;0.80;;;19.40;99.90;;;;;;5046995;28;20545;-58
2023/07/05 09:29:20;;;;;;;1.30;0.90;;;19.50;99.90;;;;;;5044114;28;20416;-57
2023/07/05 09:31:48;;;;;;;2.33;0.90;;;19.40;99.90;;;;;;5039776;28;20988;-58
2023/07/05 09:34:28;;;;;;;0.90;0.90;;;19.40;99.90;;;;;;5029754;28;20469;-57
2023/07/05 09:36:54;;;;;;;1.37;0.90;;;19.40;99.90;;;;;;5041914;28;20433;-56
2023/07/05 09:39:49;;;;;;;1.33;1.00;;;19.40;99.90;;;;;;5037865;28;20445;-58
2023/07/05 09:42:28;;;;;;;1.20;1.00;;;19.40;99.90;;;;;;5040045;28;20210;-58
2023/07/05 09:44:54;;;;;;;1.20;1.10;;;19.50;99.90;;;;;;5034364;28;20522;-56
2023/07/05 09:47:22;;;;;;;1.20;1.10;;;19.60;99.90;;;;;;5041626;28;20512;-58
2023/07/05 09:49:49;;;;;;;1.00;0.90;;;19.60;99.90;;;;;;5039748;28;20179;-54
2023/07/05 09:52:20;;;;;;;1.37;0.90;;;19.70;99.90;;;;;;5039636;28;20452;-58
2023/07/05 09:54:49;;;;;;;1.30;1.20;;;19.70;98.30;;;;;;5031259;28;20518;-58
2023/07/05 09:57:24;;;;;;;3.27;1.20;;;19.70;99.70;;;;;;5034533;28;21130;-57
2023/07/05 09:59:52;;;;;;;1.30;1.20;;;19.70;99.90;;;;;;5034797;28;21033;-59
2023/07/05 10:02:22;;;;;;;1.03;1.00;;;19.80;99.10;;;;;;5036009;28;20449;-58
2023/07/05 10:04:52;;;;;;;1.40;1.30;;;19.90;95.90;;;;;;5037107;28;20457;-58
2023/07/05 10:07:24;;;;;;;1.33;1.10;;;19.90;92.90;;;;;;5033118;28;20434;-58
2023/07/05 10:09:57;;;;;;;1.43;1.17;;;20.00;98.10;;;;;;5046497;28;20498;-58
2023/07/05 10:12:43;;;;;;;1.53;1.20;;;20.20;93.60;;;;;;5035009;28;20544;-59
2023/07/05 10:15:21;;;;;;;1.70;1.20;;;20.30;93.90;;;;;;5024513;28;20481;-58
2023/07/05 10:17:49;;;;;;;1.53;1.43;;;20.40;81.30;;;;;;5036269;28;20429;-58
2023/07/05 10:20:27;;;;;;;1.37;1.27;;;20.50;83.90;;;;;;5034168;28;20427;-59
2023/07/05 10:23:02;;;;;;;1.30;1.20;;;20.60;79.50;;;;;;5039980;28;20441;-58
2023/07/05 10:25:38;;;;;;;3.00;1.30;;;20.60;79.60;;;;;;5032970;28;20441;-60
2023/07/05 10:28:05;;;;;;;1.33;1.23;;;20.80;86.20;;;;;;5035672;28;20434;-59
2023/07/05 10:30:31;;;;;;;1.50;1.40;;;20.90;91.30;;;;;;5043887;28;20442;-59
2023/07/05 10:33:16;;;;;;;3.13;1.83;;;21.00;77.70;;;;;;5042472;28;20965;-61
2023/07/05 10:35:57;;;;;;;2.00;1.57;;;20.90;80.00;;;;;;5037084;28;20481;-59
2023/07/05 10:38:26;;;;;;;1.60;1.30;;;20.90;73.40;;;;;;5037019;28;20580;-61
2023/07/05 10:40:59;;;;;;;1.90;1.70;;;20.80;76.30;;;;;;5043047;28;20536;-59
2023/07/05 10:43:26;;;;;;;4.60;1.60;;;20.80;78.00;;;;;;5035700;28;20425;-59
2023/07/05 10:45:52;;;;;;;1.90;1.70;;;20.90;80.70;;;;;;5039500;28;21060;-59
2023/07/05 10:48:33;;;;;;;3.37;1.60;;;21.00;79.00;;;;;;5019604;28;20430;-59
2023/07/05 10:50:59;;;;;;;1.63;1.53;;;20.90;80.70;;;;;;5031117;28;20231;-60
2023/07/05 10:53:27;;;;;;;1.70;1.43;;;20.70;78.40;;;;;;5032492;28;20577;-59
2023/07/05 10:56:09;;;;;;;1.70;1.60;;;20.60;72.90;;;;;;5036246;28;20163;-59
2023/07/05 10:58:45;;;;;;;2.60;1.87;;;20.40;75.00;;;;;;5032861;28;20438;-58
2023/07/05 11:01:17;;;;;;;1.33;1.23;;;20.30;78.10;;;;;;5048348;28;20417;-55
2023/07/05 11:03:46;;;;;;;3.93;1.63;;;20.30;76.30;;;;;;5040143;28;20430;-59
2023/07/05 11:06:14;;;;;;;2.07;1.40;;;20.40;78.60;;;;;;5044285;28;20444;-57
2023/07/05 11:08:43;;;;;;;1.77;1.50;;;20.50;70.70;;;;;;5043423;28;20514;-58
2023/07/05 11:11:19;;;;;;;1.47;1.37;;;20.40;69.10;;;;;;5028998;28;20453;-57
2023/07/05 11:13:46;;;;;;;2.00;1.60;;;20.30;68.10;;;;;;5037171;28;20449;-58
2023/07/05 11:16:24;;;;;;;4.03;1.57;;;20.40;67.40;;;;;;5046277;28;20446;-60
2023/07/05 11:19:02;;;;;;;5.60;1.73;;;20.60;65.10;;;;;;5036677;28;20430;-59
2023/07/05 11:21:50;;;;;;;2.30;1.90;;;20.80;62.20;;;;;;5040889;28;20832;-59
2023/07/05 11:24:25;;;;;;;2.00;1.80;;;21.00;64.70;;;;;;5039622;28;21131;-59
2023/07/05 11:26:51;;;;;;;2.60;2.03;;;21.30;63.10;;;;;;5036946;28;20439;-60
2023/07/05 11:29:28;;;;;;;2.83;1.70;;;21.40;61.90;;;;;;5034649;28;20431;-59
2023/07/05 11:31:54;;;;;;;2.63;2.20;;;21.30;60.50;;;;;;5032698;28;20205;-59
2023/07/05 11:34:25;;;;;;;2.70;2.30;;;21.30;58.20;;;;;;5045088;28;20449;-59
2023/07/05 11:37:06;;;;;;;3.90;2.27;;;21.20;59.00;;;;;;5033432;28;20551;-58
2023/07/05 11:39:35;;;;;;;3.70;2.87;;;21.40;62.80;;;;;;5039457;28;20448;-59
2023/07/05 11:42:15;;;;;;;4.00;3.03;;;21.60;55.40;;;;;;5033984;28;20473;-59
2023/07/05 11:45:16;;;;;;;3.70;2.80;;;21.70;54.50;;;;;;5030254;28;20434;-59
2023/07/05 11:47:47;;;;;;;4.93;2.90;;;21.90;54.40;;;;;;5030135;28;20445;-59
2023/07/05 11:50:13;;;;;;;5.70;3.37;;;21.90;56.60;;;;;;5034636;28;20430;-56
2023/07/05 11:53:00;;;;;;;5.53;4.00;;;22.10;55.50;;;;;;5044079;28;20507;-58
2023/07/05 11:55:33;;;;;;;6.27;4.00;;;22.20;51.20;;;;;;5036538;28;20432;-59
2023/07/05 11:58:20;;;;;;;5.60;3.90;;;22.20;49.90;;;;;;5042463;28;20429;-60
2023/07/05 12:00:51;;;;;;;5.90;4.40;;;22.40;49.80;;;;;;5026790;28;20449;-62
2023/07/05 12:03:23;;;;;;;5.10;4.00;;;22.50;49.90;;;;;;5032554;28;20438;-60
2023/07/05 12:05:59;;;;;;;6.83;4.20;;;22.70;46.60;;;;;;5032494;28;20431;-60
2023/07/05 12:08:37;;;;;;;6.80;4.30;;;22.80;47.60;;;;;;5029757;28;20540;-59
2023/07/05 12:11:03;;;;;;;7.30;4.40;;;22.80;46.60;;;;;;5033194;28;20458;-60
2023/07/05 12:13:33;;;;;;;6.10;4.27;;;22.80;45.80;;;;;;5029997;28;20464;-60
2023/07/05 12:16:01;;;;;;;6.33;4.30;;;23.00;46.00;;;;;;5035633;28;20260;-61
2023/07/05 12:18:28;;;;;;;6.37;4.47;;;23.20;44.70;;;;;;5034634;28;21043;-59
2023/07/05 12:20:55;;;;;;;5.17;4.13;;;23.20;43.50;;;;;;5036318;28;20974;-60
2023/07/05 12:23:23;;;;;;;6.00;4.00;;;23.20;43.40;;;;;;5043404;28;20430;-59
2023/07/05 12:25:53;;;;;;;6.40;4.17;;;23.20;41.80;;;;;;5032115;28;20442;-59
2023/07/05 12:28:25;;;;;;;5.70;4.37;;;23.10;42.90;;;;;;5029994;28;20425;-60
2023/07/05 12:31:15;;;;;;;5.90;4.47;;;23.10;43.60;;;;;;5031459;28;20457;-59
2023/07/05 12:33:50;;;;;;;5.10;4.10;;;23.00;42.70;;;;;;5032538;28;20563;-60
2023/07/05 12:36:18;;;;;;;5.23;3.80;;;23.20;42.50;;;;;;5037956;28;20421;-53
2023/07/05 12:38:45;;;;;;;8.93;4.20;;;23.50;41.50;;;;;;5035945;28;20955;-57
2023/07/05 12:41:15;;;;;;;5.80;3.90;;;23.50;40.70;;;;;;5034620;28;20550;-57
2023/07/05 12:43:41;;;;;;;5.93;3.53;;;23.70;40.70;;;;;;5036080;28;20421;-55
2023/07/05 12:46:08;;;;;;;5.70;4.17;;;23.80;39.60;;;;;;5037741;28;20876;-56
2023/07/05 12:48:34;;;;;;;7.17;4.00;;;23.70;40.50;;;;;;5039322;28;20211;-54
2023/07/05 12:51:01;;;;;;;8.00;4.37;;;23.80;41.10;;;;;;5039645;28;20483;-55
2023/07/05 12:53:26;;;;;;;8.97;5.40;;;23.90;41.60;;;;;;5032641;28;20230;-54
2023/07/05 12:56:00;;;;;;;5.57;3.83;;;24.00;40.70;;;;;;5034668;28;20487;-54
2023/07/05 12:58:27;;;;;;;6.07;3.63;;;24.10;40.80;;;;;;5034516;28;20180;-56